createdAt,value
2022-12-07T00:01:47.631Z,97237.98
2022-12-07T00:04:18.336Z,97247.86
2022-12-07T00:06:50.658Z,97256.64
2022-12-07T00:09:19.103Z,97245.73
2022-12-07T00:11:52.227Z,97252.64
2022-12-07T00:14:20.358Z,97255.81
2022-12-07T00:16:51.452Z,97250.25
2022-12-07T00:19:19.523Z,97252.91
2022-12-07T00:21:47.052Z,97256.36
2022-12-07T00:24:14.616Z,97258.79
2022-12-07T00:26:44.377Z,97256.70
2022-12-07T00:29:22.257Z,97259.91
2022-12-07T00:31:50.367Z,97257.25
2022-12-07T00:34:20.860Z,97259.64
2022-12-07T00:36:49.765Z,97256.73
2022-12-07T00:39:17.869Z,97260.77
2022-12-07T00:41:45.663Z,97250.69
2022-12-07T00:44:13.280Z,97249.11
2022-12-07T00:46:42.177Z,97245.35
2022-12-07T00:49:09.997Z,97248.29
2022-12-07T00:51:37.665Z,97245.08
2022-12-07T00:54:05.332Z,97244.84
2022-12-07T00:56:33.004Z,97248.56
2022-12-07T00:59:04.686Z,97245.41
2022-12-07T01:01:37.056Z,97245.69
2022-12-07T01:04:05.227Z,97249.20
2022-12-07T01:06:33.394Z,97249.72
2022-12-07T01:09:01.169Z,97247.60
2022-12-07T01:11:30.936Z,97247.05
2022-12-07T01:14:01.200Z,97251.56
2022-12-07T01:16:32.019Z,97252.35
2022-12-07T01:19:01.937Z,97252.62
2022-12-07T01:21:36.470Z,97252.08
2022-12-07T01:24:07.058Z,97251.53
2022-12-07T01:26:34.942Z,97254.20
2022-12-07T01:29:21.508Z,97262.20
2022-12-07T01:31:50.178Z,97261.11
2022-12-07T01:34:17.756Z,97261.34
2022-12-07T01:36:48.486Z,97261.62
2022-12-07T01:39:16.178Z,97264.52
2022-12-07T01:41:44.150Z,97267.19
2022-12-07T01:44:25.006Z,97266.09
2022-12-07T01:46:59.662Z,97261.55
2022-12-07T01:49:43.726Z,97263.44
2022-12-07T01:52:24.214Z,97267.73
2022-12-07T01:54:57.156Z,97271.49
2022-12-07T01:57:25.463Z,97267.77
2022-12-07T01:59:54.746Z,97269.89
2022-12-07T02:02:32.239Z,97262.44
2022-12-07T02:05:04.011Z,97266.20
2022-12-07T02:07:35.311Z,97259.02
2022-12-07T02:10:19.498Z,97253.20
2022-12-07T02:12:55.294Z,97257.44
2022-12-07T02:15:27.780Z,97266.53
2022-12-07T02:18:09.699Z,97264.14
2022-12-07T02:21:07.017Z,97266.84
2022-12-07T02:23:55.573Z,97266.92
2022-12-07T02:26:55.938Z,97262.17
2022-12-07T02:29:31.677Z,97258.17
2022-12-07T02:32:14.057Z,97259.02
2022-12-07T02:34:59.455Z,97252.09
2022-12-07T02:37:50.592Z,97252.63
2022-12-07T02:40:26.716Z,97251.09
2022-12-07T02:43:02.116Z,97243.13
2022-12-07T02:45:34.219Z,97249.78
2022-12-07T02:48:03.271Z,97250.88
2022-12-07T02:50:30.978Z,97248.24
2022-12-07T02:52:58.728Z,97250.39
2022-12-07T02:55:31.276Z,97245.88
2022-12-07T02:58:10.207Z,97236.31
2022-12-07T03:00:49.138Z,97235.80
2022-12-07T03:03:17.476Z,97235.80
2022-12-07T03:06:21.258Z,97235.83
2022-12-07T03:09:12.726Z,97233.70
2022-12-07T03:11:57.934Z,97229.74
2022-12-07T03:14:40.173Z,97228.17
2022-12-07T03:17:21.972Z,97215.15
2022-12-07T03:19:52.515Z,97217.30
2022-12-07T03:22:22.407Z,97220.53
2022-12-07T03:24:58.000Z,97218.96
2022-12-07T03:27:37.023Z,97221.11
2022-12-07T03:30:11.470Z,97218.96
2022-12-07T03:32:46.500Z,97222.66
2022-12-07T03:35:38.238Z,97218.96
2022-12-07T03:38:20.196Z,97222.14
2022-12-07T03:40:53.404Z,97219.75
2022-12-07T03:43:22.200Z,97222.17
2022-12-07T03:46:10.674Z,97222.72
2022-12-07T03:48:52.379Z,97221.66
2022-12-07T03:51:40.812Z,97228.59
2022-12-07T03:54:25.727Z,97229.38
2022-12-07T03:56:55.166Z,97222.95
2022-12-07T03:59:24.607Z,97219.27
2022-12-07T04:01:56.071Z,97220.59
2022-12-07T04:04:25.901Z,97216.05
2022-12-07T04:06:53.850Z,97208.88
2022-12-07T04:09:21.817Z,97217.17
2022-12-07T04:11:49.613Z,97216.39
2022-12-07T04:14:20.206Z,97218.02
2022-12-07T04:16:58.046Z,97213.87
2022-12-07T04:19:32.524Z,97214.14
2022-12-07T04:22:03.165Z,97218.16
2022-12-07T04:24:31.223Z,97221.42
2022-12-07T04:26:59.027Z,97227.56
2022-12-07T04:29:27.537Z,97223.81
2022-12-07T04:31:55.245Z,97223.33
2022-12-07T04:34:23.056Z,97226.23
2022-12-07T04:36:50.762Z,97228.34
2022-12-07T04:39:31.690Z,97233.41
2022-12-07T04:42:01.138Z,97238.67
2022-12-07T04:44:30.959Z,97241.06
2022-12-07T04:46:58.731Z,97236.53
2022-12-07T04:49:26.709Z,97238.64
2022-12-07T04:51:54.404Z,97239.98
2022-12-07T04:54:22.253Z,97241.31
2022-12-07T04:56:51.860Z,97241.39
2022-12-07T04:59:19.746Z,97250.19
2022-12-07T05:01:47.516Z,97249.43
2022-12-07T05:04:16.496Z,97251.90
2022-12-07T05:06:44.030Z,97250.40
2022-12-07T05:09:13.034Z,97253.95
2022-12-07T05:11:40.918Z,97255.10
2022-12-07T05:14:19.096Z,97257.61
2022-12-07T05:16:50.102Z,97261.17
2022-12-07T05:19:19.612Z,97257.52
2022-12-07T05:21:48.609Z,97254.92
2022-12-07T05:24:17.721Z,97257.37
2022-12-07T05:26:46.577Z,97261.68
2022-12-07T05:29:16.699Z,97263.83
2022-12-07T05:31:45.853Z,97260.14
2022-12-07T05:34:13.859Z,97271.04
2022-12-07T05:36:42.872Z,97265.77
2022-12-07T05:39:11.478Z,97275.62
2022-12-07T05:41:57.647Z,97275.63
2022-12-07T05:44:28.253Z,97274.28
2022-12-07T05:47:03.959Z,97279.06
2022-12-07T05:49:31.779Z,97281.72
2022-12-07T05:52:00.119Z,97275.86
2022-12-07T05:54:27.984Z,97278.52
2022-12-07T05:56:55.998Z,97277.44
2022-12-07T05:59:24.147Z,97279.30
2022-12-07T06:01:54.102Z,97285.64
2022-12-07T06:04:22.675Z,97290.42
2022-12-07T06:06:50.984Z,97294.41
2022-12-07T06:09:20.880Z,97291.75
2022-12-07T06:12:09.238Z,97287.77
2022-12-07T06:14:37.908Z,97291.22
2022-12-07T06:17:06.834Z,97290.41
2022-12-07T06:19:34.430Z,97291.19
2022-12-07T06:22:02.632Z,97291.67
2022-12-07T06:24:30.541Z,97299.66
2022-12-07T06:26:58.669Z,97301.51
2022-12-07T06:29:26.104Z,97303.37
2022-12-07T06:31:53.971Z,97296.19
2022-12-07T06:34:23.571Z,97301.76
2022-12-07T06:36:53.998Z,97302.03
2022-12-07T06:39:25.798Z,97301.20
2022-12-07T06:41:54.649Z,97302.27
2022-12-07T06:44:23.333Z,97312.61
2022-12-07T06:46:52.750Z,97311.02
2022-12-07T06:49:22.052Z,97311.51
2022-12-07T06:51:49.662Z,97315.19
2022-12-07T06:54:18.443Z,97317.58
2022-12-07T06:56:46.069Z,97318.13
2022-12-07T06:59:14.223Z,97317.53
2022-12-07T07:01:41.950Z,97324.17
2022-12-07T07:04:09.670Z,97326.02
2022-12-07T07:06:37.535Z,97325.23
2022-12-07T07:09:05.231Z,97325.80
2022-12-07T07:11:33.545Z,97328.47
2022-12-07T07:14:03.042Z,97326.60
2022-12-07T07:16:31.819Z,97323.67
2022-12-07T07:18:59.525Z,97322.06
2022-12-07T07:21:27.180Z,97318.37
2022-12-07T07:23:55.975Z,97321.57
2022-12-07T07:26:23.832Z,97318.39
2022-12-07T07:28:51.599Z,97320.55
2022-12-07T07:31:19.187Z,97321.42
2022-12-07T07:33:48.463Z,97320.90
2022-12-07T07:36:16.311Z,97329.96
2022-12-07T07:38:43.916Z,97321.44
2022-12-07T07:41:11.660Z,97323.27
2022-12-07T07:43:39.713Z,97318.25
2022-12-07T07:46:07.725Z,97321.70
2022-12-07T07:48:35.558Z,97325.43
2022-12-07T07:51:09.044Z,97323.80
2022-12-07T07:53:36.796Z,97324.89
2022-12-07T07:56:04.652Z,97337.61
2022-12-07T07:58:32.219Z,97342.34
2022-12-07T08:01:07.694Z,97343.16
2022-12-07T08:03:36.297Z,97345.30
2022-12-07T08:06:05.032Z,97340.77
2022-12-07T08:08:32.925Z,97343.97
2022-12-07T08:11:02.131Z,97341.31
2022-12-07T08:13:31.652Z,97340.50
2022-12-07T08:15:59.958Z,97338.34
2022-12-07T08:18:27.598Z,97334.64
2022-12-07T08:21:01.677Z,97322.62
2022-12-07T08:23:37.677Z,97327.14
2022-12-07T08:26:05.687Z,97334.31
2022-12-07T08:28:33.229Z,97332.17
2022-12-07T08:31:06.230Z,97329.27
2022-12-07T08:33:34.540Z,97324.73
2022-12-07T08:36:04.665Z,97322.84
2022-12-07T08:38:32.629Z,97331.57
2022-12-07T08:41:00.590Z,97335.48
2022-12-07T08:43:28.408Z,97335.14
2022-12-07T08:46:22.652Z,97336.95
2022-12-07T08:48:55.127Z,97338.50
2022-12-07T08:51:23.884Z,97334.47
2022-12-07T08:53:53.217Z,97331.77
2022-12-07T08:56:21.994Z,97329.08
2022-12-07T08:58:49.830Z,97323.75
2022-12-07T09:01:22.268Z,97322.89
2022-12-07T09:03:49.931Z,97318.85
2022-12-07T09:06:18.070Z,97313.45
2022-12-07T09:08:50.395Z,97313.81
2022-12-07T09:11:17.906Z,97318.41
2022-12-07T09:13:45.620Z,97321.16
2022-12-07T09:16:13.170Z,97309.23
2022-12-07T09:18:41.160Z,97310.15
2022-12-07T09:21:09.697Z,97306.14
2022-12-07T09:23:37.403Z,97306.19
2022-12-07T09:26:10.496Z,97302.22
2022-12-07T09:28:35.873Z,97305.44
2022-12-07T09:33:34.856Z,97291.90
2022-12-07T09:36:04.818Z,97286.83
2022-12-07T09:38:33.354Z,97285.38
2022-12-07T09:41:09.012Z,97282.89
2022-12-07T09:43:40.125Z,97282.45
2022-12-07T09:46:13.459Z,97281.50
2022-12-07T09:48:43.319Z,97281.22
2022-12-07T09:51:25.406Z,97272.60
2022-12-07T09:53:57.472Z,97267.42
2022-12-07T09:56:25.657Z,97263.38
2022-12-07T09:59:03.034Z,97266.06
2022-12-07T10:01:34.733Z,97264.42
2022-12-07T10:04:11.455Z,97261.78
2022-12-07T10:06:40.587Z,97266.59
2022-12-07T10:09:16.926Z,97265.24
2022-12-07T10:12:12.156Z,97273.50
2022-12-07T10:15:13.145Z,97266.84
2022-12-07T10:17:44.107Z,97273.77
2022-12-07T10:20:25.966Z,97269.97
2022-12-07T10:23:00.381Z,97271.86
2022-12-07T10:25:33.751Z,97277.39
2022-12-07T10:28:18.317Z,97272.93
2022-12-07T10:31:06.930Z,97276.02
2022-12-07T10:33:38.870Z,97273.16
2022-12-07T10:36:29.780Z,97270.81
2022-12-07T10:39:14.507Z,97271.96
2022-12-07T10:42:01.454Z,97270.26
2022-12-07T10:44:32.046Z,97263.70
2022-12-07T10:47:24.715Z,97267.95
2022-12-07T10:50:12.977Z,97261.45
2022-12-07T10:52:46.016Z,97260.80
2022-12-07T10:55:30.799Z,97263.04
2022-12-07T10:58:27.122Z,97265.41
2022-12-07T11:01:03.323Z,97259.98
2022-12-07T11:04:11.000Z,97254.45
2022-12-07T11:07:07.049Z,97262.27
2022-12-07T11:10:07.476Z,97254.67
2022-12-07T11:12:46.461Z,97256.42
2022-12-07T11:15:29.140Z,97247.00
2022-12-07T11:18:26.674Z,97251.98
2022-12-07T11:21:22.831Z,97241.67
2022-12-07T11:24:06.232Z,97245.91
2022-12-07T11:27:20.815Z,97241.13
2022-12-07T11:30:04.470Z,97243.29
2022-12-07T11:32:59.679Z,97238.95
2022-12-07T11:35:35.776Z,97232.55
2022-12-07T11:38:15.178Z,97229.93
2022-12-07T11:40:49.610Z,97234.25
2022-12-07T11:43:33.793Z,97229.32
2022-12-07T11:46:15.285Z,97234.84
2022-12-07T11:48:57.373Z,97231.78
2022-12-07T11:51:33.246Z,97233.84
2022-12-07T11:54:02.704Z,97226.98
2022-12-07T11:56:31.724Z,97233.34
2022-12-07T11:59:10.920Z,97222.43
2022-12-07T12:01:56.486Z,97221.83
2022-12-07T12:04:47.955Z,97220.59
2022-12-07T12:10:26.812Z,97213.70
2022-12-07T12:16:17.598Z,97206.36
2022-12-07T12:19:13.506Z,97207.44
2022-12-07T12:21:42.790Z,97194.80
2022-12-07T12:24:18.916Z,97199.49
2022-12-07T12:27:06.363Z,97190.00
2022-12-07T12:29:40.708Z,97191.05
2022-12-07T12:32:18.856Z,97187.20
2022-12-07T12:35:04.695Z,97184.11
